Time;durP1;ratioP1;P1;durP2;ratioP2;P2;SDS_P1;SDS_P2;PMS_P1;PMS_P2;Temp;Humidity;BMP_temperature;BMP_pressure;BME280_temperature;BME280_humidity;BME280_pressure;Samples;Min_cycle;Max_cycle;Signal;HPM_P1;HPM_P2
2021/08/28 00:01:34;;;;;;;14.95;5.72;;;;;;;14.89;82.51;102203.44;4993443;28;20600;-49
2021/08/28 00:04:00;;;;;;;12.50;5.50;;;;;;;14.85;82.21;102195.50;4993001;28;20026;-50
2021/08/28 00:06:25;;;;;;;19.40;6.28;;;;;;;14.81;82.47;102196.31;4994820;28;20473;-49
2021/08/28 00:08:51;;;;;;;19.20;6.03;;;;;;;14.78;82.61;102193.63;4993009;28;20504;-48
2021/08/28 00:11:16;;;;;;;14.98;5.50;;;;;;;14.71;82.60;102200.50;4987393;28;20564;-47
2021/08/28 00:13:43;;;;;;;19.05;6.50;;;;;;;14.75;83.06;102193.59;5008372;28;20116;-50
2021/08/28 00:16:09;;;;;;;18.83;6.57;;;;;;;14.70;82.89;102190.00;4992138;28;20144;-51
2021/08/28 00:18:35;;;;;;;21.02;7.05;;;;;;;14.67;83.19;102193.44;4993971;28;20552;-51
2021/08/28 00:21:00;;;;;;;16.95;6.05;;;;;;;14.66;83.21;102191.69;4990421;28;20030;-49
2021/08/28 00:23:26;;;;;;;17.33;6.45;;;;;;;14.61;83.30;102194.22;4994119;28;20040;-51
2021/08/28 00:25:52;;;;;;;18.95;6.80;;;;;;;14.55;83.43;102190.59;4989234;28;20029;-49
2021/08/28 00:28:17;;;;;;;25.10;8.20;;;;;;;14.52;83.42;102187.91;4988437;28;20026;-50
2021/08/28 00:30:43;;;;;;;24.55;6.50;;;;;;;14.56;83.70;102195.00;4997620;28;20156;-53
2021/08/28 00:33:15;;;;;;;12.95;6.68;;;;;;;14.54;83.59;102187.09;4989876;28;20030;-52
2021/08/28 00:35:42;;;;;;;27.60;8.40;;;;;;;14.54;83.93;102189.72;4994626;28;20022;-50
2021/08/28 00:38:08;;;;;;;22.48;7.32;;;;;;;14.56;83.71;102189.75;4989492;28;20038;-52
2021/08/28 00:40:34;;;;;;;18.23;6.90;;;;;;;14.55;83.63;102186.25;4986157;28;20046;-47
2021/08/28 00:43:00;;;;;;;22.00;7.63;;;;;;;14.57;83.95;102189.78;4989140;28;20029;-51
2021/08/28 00:45:27;;;;;;;19.77;8.00;;;;;;;14.61;83.99;102190.72;4993754;28;20970;-52
2021/08/28 00:48:25;;;;;;;21.20;7.75;;;;;;;14.70;84.26;102190.88;4994098;28;20037;-48
2021/08/28 00:50:50;;;;;;;20.42;7.25;;;;;;;14.79;84.10;102190.16;4982639;28;20271;-48
2021/08/28 00:53:16;;;;;;;22.30;7.43;;;;;;;14.86;84.31;102192.03;4988004;28;20052;-47
2021/08/28 00:55:43;;;;;;;19.40;7.60;;;;;;;14.92;84.15;102181.63;4990595;28;20034;-48
2021/08/28 00:58:08;;;;;;;22.73;8.00;;;;;;;15.01;84.34;102184.38;4989993;28;20034;-48
2021/08/28 01:00:40;;;;;;;27.38;7.22;;;;;;;15.11;84.09;102183.69;4993034;28;20532;-47
2021/08/28 01:03:07;;;;;;;21.67;6.95;;;;;;;15.21;83.96;102188.22;4989124;28;20541;-46
2021/08/28 01:05:46;;;;;;;23.90;6.90;;;;;;;15.32;83.27;102189.25;4994587;28;20196;-46
2021/08/28 01:08:25;;;;;;;21.95;6.57;;;;;;;15.43;82.99;102187.66;4985402;28;21979;-48
2021/08/28 01:10:57;;;;;;;21.23;6.88;;;;;;;15.50;82.58;102191.25;4989210;28;20030;-48
2021/08/28 01:13:23;;;;;;;15.35;6.38;;;;;;;15.61;82.31;102191.47;4991516;28;20040;-48
2021/08/28 01:15:51;;;;;;;15.45;5.63;;;;;;;15.62;82.29;102190.56;4987717;28;20034;-48
2021/08/28 01:18:17;;;;;;;17.52;5.65;;;;;;;15.76;81.69;102183.78;4982192;28;20100;-52
2021/08/28 01:20:56;;;;;;;18.25;5.70;;;;;;;15.82;81.40;102182.09;4994827;28;20184;-49
2021/08/28 01:23:22;;;;;;;17.38;6.00;;;;;;;15.86;81.39;102185.63;4992100;28;20040;-48
2021/08/28 01:25:48;;;;;;;16.27;5.80;;;;;;;15.92;80.97;102187.50;4989465;28;20465;-47
2021/08/28 01:28:13;;;;;;;17.65;5.90;;;;;;;15.99;81.02;102178.78;4984686;28;20364;-47
2021/08/28 01:30:40;;;;;;;17.13;5.78;;;;;;;16.02;80.68;102179.72;4993456;28;20061;-47
2021/08/28 01:33:06;;;;;;;18.10;5.45;;;;;;;16.06;80.64;102180.63;4986964;28;20112;-47
2021/08/28 01:35:32;;;;;;;15.48;5.47;;;;;;;16.04;80.74;102182.38;4993664;28;20412;-48
2021/08/28 01:37:58;;;;;;;22.25;6.07;;;;;;;16.04;80.56;102188.50;4991414;28;20461;-50
2021/08/28 01:40:24;;;;;;;18.45;6.15;;;;;;;16.05;80.78;102189.38;4985097;28;20531;-47
2021/08/28 01:42:51;;;;;;;19.55;5.85;;;;;;;16.07;80.67;102192.91;4984870;28;20486;-47
2021/08/28 01:45:17;;;;;;;16.85;5.43;;;;;;;16.08;80.42;102189.44;4992801;28;20026;-50
2021/08/28 01:47:44;;;;;;;15.60;5.63;;;;;;;16.06;80.57;102192.03;4990162;28;20418;-47
2021/08/28 01:50:10;;;;;;;15.18;5.65;;;;;;;16.05;80.46;102192.91;4993891;28;20030;-47
2021/08/28 01:52:36;;;;;;;16.35;5.45;;;;;;;16.01;80.71;102188.47;4993287;28;20040;-49
2021/08/28 01:55:03;;;;;;;17.85;5.70;;;;;;;15.98;80.69;102183.16;4991810;28;20038;-47
2021/08/28 01:57:32;;;;;;;15.90;5.55;;;;;;;15.94;80.83;102185.75;4983839;28;20425;-52
2021/08/28 01:59:57;;;;;;;17.52;6.30;;;;;;;15.91;81.00;102181.34;4988071;28;20021;-46
2021/08/28 02:02:22;;;;;;;16.83;5.57;;;;;;;15.89;81.06;102183.06;4986915;28;20080;-47
2021/08/28 02:04:48;;;;;;;23.75;6.70;;;;;;;15.87;81.40;102190.03;4995082;28;20020;-47
2021/08/28 02:07:24;;;;;;;18.25;6.20;;;;;;;15.87;81.25;102195.28;4991981;28;20117;-46
2021/08/28 02:10:01;;;;;;;20.33;6.40;;;;;;;15.82;81.48;102187.34;4993391;28;20049;-49
2021/08/28 02:12:36;;;;;;;17.00;6.10;;;;;;;15.90;81.12;102195.34;4986550;28;20039;-50
2021/08/28 02:15:06;;;;;;;20.23;6.32;;;;;;;15.91;81.03;102202.38;4987149;28;20155;-54
2021/08/28 02:17:34;;;;;;;23.77;6.53;;;;;;;15.93;81.12;102198.00;4983727;28;20041;-49
2021/08/28 02:20:03;;;;;;;18.85;6.13;;;;;;;15.89;80.95;102203.22;4986474;28;20056;-48
2021/08/28 02:22:32;;;;;;;17.75;6.38;;;;;;;15.84;81.26;102200.53;4993164;28;20102;-47
2021/08/28 02:25:04;;;;;;;23.65;6.63;;;;;;;15.86;81.55;102197.94;4988403;28;20026;-49
2021/08/28 02:27:32;;;;;;;23.50;6.53;;;;;;;15.88;81.49;102193.56;4990211;28;20089;-51
2021/08/28 02:30:02;;;;;;;20.10;7.05;;;;;;;15.82;81.65;102197.00;5005537;28;20285;-48
2021/08/28 02:32:28;;;;;;;17.50;6.63;;;;;;;15.80;81.53;102193.44;4989371;28;20081;-47
2021/08/28 02:34:56;;;;;;;19.13;6.55;;;;;;;15.79;81.67;102192.59;4986808;28;20145;-50
2021/08/28 02:37:22;;;;;;;20.73;6.93;;;;;;;15.77;81.70;102190.81;5004375;28;20543;-50
2021/08/28 02:39:47;;;;;;;15.82;6.40;;;;;;;15.78;81.55;102189.94;4989418;28;20022;-48
2021/08/28 02:42:13;;;;;;;16.52;6.43;;;;;;;15.80;81.21;102196.97;4981167;28;20517;-53
2021/08/28 02:44:41;;;;;;;16.13;6.30;;;;;;;15.77;81.30;102188.16;4989798;28;20033;-50
2021/08/28 02:47:08;;;;;;;18.50;6.40;;;;;;;15.71;81.24;102186.34;4993601;28;20118;-49
2021/08/28 02:49:35;;;;;;;20.25;6.05;;;;;;;15.71;81.23;102182.81;4992931;28;20031;-49
2021/08/28 02:52:03;;;;;;;13.98;6.28;;;;;;;15.70;81.14;102188.94;4990786;28;20021;-48
2021/08/28 02:54:29;;;;;;;18.52;5.60;;;;;;;15.70;80.83;102188.94;4991190;28;20102;-50
2021/08/28 02:56:55;;;;;;;12.65;5.63;;;;;;;15.69;80.85;102189.81;4994707;28;20022;-53
2021/08/28 02:59:24;;;;;;;16.75;5.03;;;;;;;15.67;80.55;102187.19;4990071;28;20022;-51
2021/08/28 03:01:49;;;;;;;17.35;5.55;;;;;;;15.69;80.43;102190.69;4989082;28;20030;-49
2021/08/28 03:04:17;;;;;;;15.88;5.05;;;;;;;15.69;80.10;102190.69;4996121;28;20030;-51
2021/08/28 03:06:44;;;;;;;14.73;4.78;;;;;;;15.66;79.99;102185.41;4997115;28;20101;-48
2021/08/28 03:09:10;;;;;;;14.70;4.93;;;;;;;15.70;80.12;102188.94;4990145;28;20030;-49
2021/08/28 03:11:35;;;;;;;13.13;4.95;;;;;;;15.68;79.83;102181.03;4993773;28;20241;-49
2021/08/28 03:14:00;;;;;;;14.70;4.85;;;;;;;15.65;80.05;102173.13;4991546;28;20109;-49
2021/08/28 03:16:28;;;;;;;11.38;4.50;;;;;;;15.67;79.96;102171.41;4985662;28;20145;-48
2021/08/28 03:18:56;;;;;;;14.27;4.68;;;;;;;15.66;79.82;102172.25;4994384;28;20034;-51
2021/08/28 03:21:22;;;;;;;9.60;4.00;;;;;;;15.61;80.01;102178.31;4993169;28;20021;-48
2021/08/28 03:23:48;;;;;;;10.98;4.25;;;;;;;15.58;80.00;102171.25;4991602;28;20063;-48
2021/08/28 03:26:15;;;;;;;12.35;4.55;;;;;;;15.55;80.29;102176.50;4992577;28;20034;-52
2021/08/28 03:28:41;;;;;;;13.48;4.20;;;;;;;15.54;80.44;102176.47;4993128;28;20061;-52
2021/08/28 03:31:07;;;;;;;11.25;4.50;;;;;;;15.56;80.46;102180.88;4991068;28;20530;-52
2021/08/28 03:33:34;;;;;;;9.30;4.22;;;;;;;15.57;80.57;102180.00;4993767;28;20017;-50
2021/08/28 03:35:59;;;;;;;12.52;4.30;;;;;;;15.56;80.75;102177.34;4993490;28;20065;-52
2021/08/28 03:38:25;;;;;;;13.32;4.35;;;;;;;15.56;80.88;102182.59;4985818;28;20044;-49
2021/08/28 03:40:50;;;;;;;13.23;4.18;;;;;;;15.58;80.93;102180.91;4983651;28;20120;-52
2021/08/28 03:43:15;;;;;;;12.02;4.15;;;;;;;15.60;80.87;102187.94;4990019;28;20030;-52
2021/08/28 03:45:41;;;;;;;12.75;4.38;;;;;;;15.60;80.83;102185.31;4990754;28;20088;-48
2021/08/28 03:48:07;;;;;;;10.32;4.50;;;;;;;15.61;81.10;102188.84;4992971;28;20104;-50
2021/08/28 03:50:33;;;;;;;12.98;4.35;;;;;;;15.61;81.05;102181.84;4994513;28;20041;-48
2021/08/28 03:52:59;;;;;;;13.45;4.45;;;;;;;15.64;81.29;102183.59;4990161;28;20049;-49
2021/08/28 03:55:24;;;;;;;9.55;4.40;;;;;;;15.69;81.09;102182.81;4992918;28;20081;-49
2021/08/28 03:57:49;;;;;;;17.15;4.63;;;;;;;15.74;81.04;102186.38;4992342;28;20061;-54
2021/08/28 04:00:15;;;;;;;17.75;5.38;;;;;;;15.75;81.02;102187.25;4992664;28;20105;-47
2021/08/28 04:02:41;;;;;;;11.77;4.88;;;;;;;15.77;81.05;102180.28;4991471;28;20072;-51
2021/08/28 04:05:07;;;;;;;11.95;5.50;;;;;;;15.74;81.12;102181.09;4991318;28;20120;-49
2021/08/28 04:07:37;;;;;;;15.75;5.10;;;;;;;15.75;81.16;102187.25;4989544;28;20057;-50
2021/08/28 04:10:02;;;;;;;11.82;5.85;;;;;;;15.71;81.29;102178.47;4993409;28;20034;-48
2021/08/28 04:12:27;;;;;;;16.02;5.88;;;;;;;15.70;81.72;102175.81;4993234;28;20029;-49
2021/08/28 04:14:53;;;;;;;14.07;5.70;;;;;;;15.77;81.51;102185.53;4989906;28;20029;-50
2021/08/28 04:17:18;;;;;;;16.38;6.10;;;;;;;15.72;81.90;102184.59;4993756;28;20028;-50
2021/08/28 04:19:43;;;;;;;15.00;6.25;;;;;;;15.82;81.49;102181.22;4991822;28;20168;-47
2021/08/28 04:22:09;;;;;;;14.52;5.70;;;;;;;15.85;81.37;102188.28;4990846;28;20030;-49
2021/08/28 04:24:34;;;;;;;18.50;5.75;;;;;;;15.90;81.21;102186.56;4991801;28;20026;-47
2021/08/28 04:27:01;;;;;;;18.08;5.80;;;;;;;15.85;81.37;102186.53;4991779;28;20096;-47
2021/08/28 04:29:27;;;;;;;14.48;5.47;;;;;;;15.87;81.44;102183.91;4991154;28;20034;-46
2021/08/28 04:31:52;;;;;;;15.40;6.03;;;;;;;15.84;81.52;102182.13;4994349;28;20028;-49
2021/08/28 04:34:18;;;;;;;15.38;5.55;;;;;;;15.78;81.73;102176.78;4988592;28;20065;-49
2021/08/28 04:36:43;;;;;;;15.38;5.30;;;;;;;15.71;82.17;102186.34;4992647;28;20068;-51
2021/08/28 04:39:09;;;;;;;16.88;5.47;;;;;;;15.73;82.14;102183.75;4991028;28;20393;-48
2021/08/28 04:41:34;;;;;;;12.57;5.40;;;;;;;15.77;81.89;102189.06;4990701;28;20042;-49
2021/08/28 04:44:00;;;;;;;11.52;5.30;;;;;;;15.77;82.08;102196.94;4991982;28;20034;-50
2021/08/28 04:46:25;;;;;;;15.73;5.60;;;;;;;15.77;81.87;102188.16;4989202;28;20049;-52
2021/08/28 04:48:50;;;;;;;15.55;5.32;;;;;;;15.85;81.50;102191.78;4991279;28;20049;-52
2021/08/28 04:51:16;;;;;;;16.15;4.95;;;;;;;15.80;81.83;102189.06;4994164;28;20054;-47
2021/08/28 04:53:41;;;;;;;14.20;5.38;;;;;;;15.78;81.52;102195.19;4992033;28;20040;-47
2021/08/28 04:56:07;;;;;;;15.55;5.32;;;;;;;15.79;81.66;102196.97;4993762;28;20452;-51
2021/08/28 04:58:32;;;;;;;15.50;5.15;;;;;;;15.75;81.71;102197.78;4994604;28;20057;-48
2021/08/28 05:00:57;;;;;;;15.80;5.43;;;;;;;15.76;81.15;102196.91;4990382;28;20029;-47
2021/08/28 05:03:25;;;;;;;12.13;4.97;;;;;;;15.70;81.49;102202.09;4989550;28;20666;-49
2021/08/28 05:05:54;;;;;;;15.13;5.10;;;;;;;15.64;82.08;102202.91;4991558;28;20492;-49
2021/08/28 05:08:20;;;;;;;15.55;5.20;;;;;;;15.66;82.00;102206.44;4987288;28;20096;-51
2021/08/28 05:10:45;;;;;;;15.25;4.97;;;;;;;15.71;81.71;102211.75;4989812;28;20026;-46
2021/08/28 05:13:10;;;;;;;12.27;5.35;;;;;;;15.68;81.74;102209.06;4990598;28;20065;-47
2021/08/28 05:15:36;;;;;;;13.30;5.05;;;;;;;15.69;81.49;102200.31;4990622;28;20462;-47
2021/08/28 05:18:04;;;;;;;16.15;5.10;;;;;;;15.63;81.75;102206.38;4989498;28;20504;-53
2021/08/28 05:20:29;;;;;;;12.13;4.90;;;;;;;15.67;81.53;102208.22;4992282;28;20156;-48
2021/08/28 05:22:55;;;;;;;9.88;4.97;;;;;;;15.63;81.67;102211.63;4988748;28;20033;-47
2021/08/28 05:25:20;;;;;;;14.15;4.63;;;;;;;15.67;81.53;102210.84;4991675;28;20138;-49
2021/08/28 05:27:45;;;;;;;12.82;5.35;;;;;;;15.78;81.27;102214.50;4988905;28;20040;-48
2021/08/28 05:30:11;;;;;;;14.13;4.65;;;;;;;15.77;80.91;102222.34;4983774;28;20029;-51
2021/08/28 05:32:36;;;;;;;14.55;4.80;;;;;;;15.87;80.54;102223.34;4986390;28;20480;-48
2021/08/28 05:35:02;;;;;;;13.65;4.57;;;;;;;15.80;80.78;102219.75;4994151;28;20616;-48
2021/08/28 05:37:29;;;;;;;12.68;4.32;;;;;;;15.94;80.23;102214.66;4994350;28;20393;-49
2021/08/28 05:39:54;;;;;;;12.60;4.60;;;;;;;15.83;80.49;102215.44;4990932;28;20097;-52
2021/08/28 05:42:19;;;;;;;10.70;4.57;;;;;;;15.99;80.34;102212.97;4989108;28;20069;-48
2021/08/28 05:44:45;;;;;;;11.65;4.60;;;;;;;16.08;79.96;102215.75;4992334;28;20075;-46
2021/08/28 05:47:10;;;;;;;10.13;4.20;;;;;;;16.10;79.72;102219.28;4985907;28;20684;-46
2021/08/28 05:49:36;;;;;;;12.82;4.80;;;;;;;16.08;79.80;102219.25;4993180;28;20046;-52
2021/08/28 05:52:01;;;;;;;13.45;4.40;;;;;;;16.12;79.66;102215.78;4988153;28;20579;-48
2021/08/28 05:54:27;;;;;;;9.98;4.60;;;;;;;16.00;80.23;102220.91;4995784;28;20041;-52
2021/08/28 05:56:52;;;;;;;9.77;4.38;;;;;;;16.00;80.22;102225.28;4987881;28;20053;-48
2021/08/28 05:59:20;;;;;;;13.40;4.80;;;;;;;16.05;80.08;102228.84;4991269;28;20121;-49
2021/08/28 06:01:45;;;;;;;9.82;4.20;;;;;;;15.99;80.47;102227.00;4989454;28;20100;-50
2021/08/28 06:04:11;;;;;;;13.20;4.30;;;;;;;16.09;80.20;102225.41;4990975;28;20022;-49
2021/08/28 06:06:36;;;;;;;12.15;4.30;;;;;;;16.14;80.24;102223.69;4992045;28;20381;-52
2021/08/28 06:09:02;;;;;;;13.40;4.57;;;;;;;16.26;79.53;102231.75;4991061;28;20048;-50
2021/08/28 06:11:27;;;;;;;10.57;4.15;;;;;;;16.42;79.57;102230.16;4986538;28;20479;-47
2021/08/28 06:13:53;;;;;;;13.82;4.43;;;;;;;16.72;78.61;102237.50;4989236;28;20385;-47
2021/08/28 06:16:18;;;;;;;10.43;3.97;;;;;;;16.86;78.35;102230.63;4989414;28;20032;-53
2021/08/28 06:18:44;;;;;;;12.30;4.13;;;;;;;16.92;78.05;102234.22;4993608;28;20374;-46
2021/08/28 06:21:09;;;;;;;14.77;4.47;;;;;;;16.96;77.76;102232.47;4992916;28;20462;-48
2021/08/28 06:23:35;;;;;;;9.02;4.03;;;;;;;17.30;76.99;102228.38;4989601;28;20030;-49
2021/08/28 06:26:00;;;;;;;10.50;3.83;;;;;;;17.55;76.39;102238.22;4990760;28;20034;-47
2021/08/28 06:28:25;;;;;;;13.38;4.07;;;;;;;17.82;75.74;102234.88;4986594;28;20442;-48
2021/08/28 06:30:51;;;;;;;11.52;3.90;;;;;;;18.02;74.31;102240.25;4988341;28;20277;-48
2021/08/28 06:33:16;;;;;;;9.35;3.90;;;;;;;18.02;73.65;102233.22;4988184;28;20014;-51
2021/08/28 06:35:42;;;;;;;9.93;3.70;;;;;;;18.25;73.23;102241.22;4989047;28;20741;-48
2021/08/28 06:38:07;;;;;;;11.45;3.92;;;;;;;18.40;72.35;102240.41;4990022;28;20021;-47
2021/08/28 06:40:32;;;;;;;14.05;3.83;;;;;;;18.47;71.82;102236.91;4988206;28;20050;-47
2021/08/28 06:42:58;;;;;;;7.75;3.40;;;;;;;18.79;71.74;102235.22;4991482;28;20474;-48
2021/08/28 06:45:23;;;;;;;9.80;3.70;;;;;;;19.06;70.19;102234.38;4988909;28;20115;-47
2021/08/28 06:47:48;;;;;;;12.90;3.80;;;;;;;18.97;70.26;102234.34;4994615;28;20128;-49
2021/08/28 06:50:14;;;;;;;14.05;3.65;;;;;;;19.33;69.87;102233.47;4989909;28;20038;-49
2021/08/28 06:52:39;;;;;;;10.95;3.88;;;;;;;20.02;66.67;102234.19;4993579;28;20030;-49
2021/08/28 06:55:06;;;;;;;10.38;3.85;;;;;;;20.14;66.16;102228.84;4988849;28;20037;-48
2021/08/28 06:57:31;;;;;;;12.05;3.75;;;;;;;19.80;68.02;102226.34;4990834;28;20133;-50
2021/08/28 06:59:58;;;;;;;13.52;3.88;;;;;;;19.26;68.26;102229.06;4993599;28;20026;-52
2021/08/28 07:02:23;;;;;;;15.82;4.13;;;;;;;18.91;70.45;102235.22;4989201;28;20033;-51
2021/08/28 07:04:49;;;;;;;10.82;3.80;;;;;;;18.78;71.22;102238.75;4983173;28;20449;-51
2021/08/28 07:07:14;;;;;;;12.80;4.00;;;;;;;18.69;71.84;102235.22;4987578;28;20535;-51
2021/08/28 07:09:40;;;;;;;12.18;3.92;;;;;;;18.73;71.92;102239.59;4988184;28;20038;-47
2021/08/28 07:12:07;;;;;;;17.13;4.43;;;;;;;18.79;71.85;102229.94;4992104;28;20026;-47
2021/08/28 07:14:33;;;;;;;13.65;4.45;;;;;;;18.92;71.04;102230.81;4991242;28;20490;-49
2021/08/28 07:16:58;;;;;;;11.85;3.90;;;;;;;18.83;71.60;102242.28;4992359;28;20107;-46
2021/08/28 07:19:24;;;;;;;14.80;4.30;;;;;;;18.65;72.00;102247.53;4989081;28;20376;-50
2021/08/28 07:21:49;;;;;;;10.75;3.85;;;;;;;18.79;71.72;102242.25;4990291;28;20113;-47
2021/08/28 07:24:15;;;;;;;13.50;4.20;;;;;;;18.68;71.90;102241.38;4990504;28;20359;-47
2021/08/28 07:26:40;;;;;;;13.23;4.13;;;;;;;18.61;72.22;102240.47;4990257;28;20030;-48
2021/08/28 07:29:05;;;;;;;15.27;4.30;;;;;;;18.77;72.02;102254.59;4986588;28;20108;-50
2021/08/28 07:32:20;;;;;;;13.55;4.60;;;;;;;18.80;72.09;102242.28;4985666;28;20616;-53
2021/08/28 07:34:47;;;;;;;8.85;4.00;;;;;;;18.85;71.47;102239.63;4994196;28;20541;-47
2021/08/28 07:37:13;;;;;;;12.50;4.07;;;;;;;18.68;71.24;102236.09;4987323;28;20041;-47
2021/08/28 07:39:38;;;;;;;11.80;3.95;;;;;;;18.85;71.15;102244.91;4989935;28;20026;-48
2021/08/28 07:42:05;;;;;;;13.18;4.32;;;;;;;18.80;71.37;102241.38;4994781;28;20097;-47
2021/08/28 07:44:30;;;;;;;11.27;3.80;;;;;;;18.91;70.33;102240.50;4993290;28;20018;-50
2021/08/28 07:46:56;;;;;;;13.43;4.03;;;;;;;19.08;69.69;102239.66;4991870;28;20029;-49
2021/08/28 07:49:21;;;;;;;12.93;3.80;;;;;;;19.25;69.23;102245.81;4993546;28;20039;-50
2021/08/28 07:51:47;;;;;;;16.65;4.20;;;;;;;19.21;69.07;102250.22;4991210;28;20041;-50
2021/08/28 07:54:12;;;;;;;10.88;4.03;;;;;;;19.42;68.25;102241.38;4990657;28;20513;-51
2021/08/28 07:56:38;;;;;;;14.77;3.70;;;;;;;19.59;67.73;102238.75;4993766;28;20369;-47
2021/08/28 07:59:03;;;;;;;14.07;4.10;;;;;;;19.90;66.50;102245.72;4989835;28;20819;-48
2021/08/28 08:01:28;;;;;;;12.82;3.90;;;;;;;20.12;65.81;102249.19;4995146;28;20034;-47
2021/08/28 08:03:54;;;;;;;12.65;3.83;;;;;;;19.99;66.38;102248.34;4989938;28;20052;-46
2021/08/28 08:06:20;;;;;;;13.35;3.97;;;;;;;19.85;67.16;102250.16;4996303;28;20394;-47
2021/08/28 08:08:45;;;;;;;13.45;4.15;;;;;;;19.86;67.12;102249.25;4986250;28;20868;-48
2021/08/28 08:11:15;;;;;;;10.43;4.13;;;;;;;19.76;66.84;102247.53;4992448;28;20034;-48
2021/08/28 08:13:41;;;;;;;11.43;3.72;;;;;;;19.48;67.39;102256.41;4992084;28;20025;-51
2021/08/28 08:16:06;;;;;;;11.30;4.00;;;;;;;19.19;67.90;102259.91;4995536;28;20897;-49
2021/08/28 08:18:32;;;;;;;13.25;3.97;;;;;;;19.13;68.31;102259.03;4992702;28;20041;-47
2021/08/28 08:20:57;;;;;;;13.75;4.05;;;;;;;19.52;67.68;102255.53;4991560;28;20034;-47
2021/08/28 08:23:22;;;;;;;13.38;3.92;;;;;;;19.86;67.68;102249.25;4988581;28;20478;-49
2021/08/28 08:25:48;;;;;;;12.73;4.00;;;;;;;20.02;65.99;102258.91;4992019;28;20421;-48
2021/08/28 08:28:13;;;;;;;12.63;3.90;;;;;;;19.90;66.71;102261.59;4988031;28;20489;-47
2021/08/28 08:30:38;;;;;;;9.13;3.90;;;;;;;19.97;65.74;102265.09;4986054;28;21271;-47
2021/08/28 08:33:04;;;;;;;11.23;4.18;;;;;;;19.59;65.69;102267.84;4984583;28;20033;-48
2021/08/28 08:35:29;;;;;;;12.10;3.80;;;;;;;19.78;65.47;102269.56;4992976;28;20029;-47
2021/08/28 08:37:57;;;;;;;10.23;3.92;;;;;;;19.94;64.48;102273.97;4988036;28;20101;-48
2021/08/28 08:40:23;;;;;;;12.57;3.95;;;;;;;20.09;64.11;102267.72;4983215;28;20418;-47
2021/08/28 08:42:49;;;;;;;9.93;3.67;;;;;;;20.29;63.46;102275.59;4992243;28;20046;-46
2021/08/28 08:45:14;;;;;;;9.98;3.53;;;;;;;20.29;62.54;102271.16;4986337;28;20523;-46
2021/08/28 08:47:41;;;;;;;10.70;4.00;;;;;;;20.32;63.09;102278.19;4990967;28;20042;-51
2021/08/28 08:50:06;;;;;;;9.68;3.75;;;;;;;20.19;63.84;102274.72;4992146;28;20471;-51
2021/08/28 08:52:32;;;;;;;10.85;4.03;;;;;;;20.15;63.53;102273.88;4986053;28;20280;-49
2021/08/28 08:54:58;;;;;;;9.13;3.85;;;;;;;20.19;63.05;102265.00;4991664;28;20117;-50
2021/08/28 08:57:23;;;;;;;8.30;3.95;;;;;;;20.29;62.15;102272.94;4998056;28;20052;-50
2021/08/28 08:59:49;;;;;;;9.02;3.83;;;;;;;20.42;62.83;102269.38;4983385;28;20026;-47
2021/08/28 09:02:14;;;;;;;12.18;4.25;;;;;;;20.34;61.92;102266.75;4991199;28;20028;-48
2021/08/28 09:04:39;;;;;;;8.55;3.80;;;;;;;20.37;62.35;102277.31;4992157;28;20137;-50
2021/08/28 09:07:06;;;;;;;11.60;4.20;;;;;;;20.05;61.58;102281.84;4991354;28;20045;-48
2021/08/28 09:09:31;;;;;;;10.02;3.95;;;;;;;19.79;62.54;102266.94;4991405;28;20413;-48
2021/08/28 09:11:58;;;;;;;8.65;4.25;;;;;;;20.38;61.95;102275.56;4992851;28;20041;-51
2021/08/28 09:14:23;;;;;;;10.70;4.50;;;;;;;20.56;60.68;102271.03;4990182;28;20030;-46
2021/08/28 09:16:50;;;;;;;8.38;3.83;;;;;;;20.74;61.17;102275.34;4991700;28;20144;-46
2021/08/28 09:19:16;;;;;;;8.88;3.90;;;;;;;20.76;60.54;102272.69;4987947;28;20116;-50
2021/08/28 09:21:42;;;;;;;10.25;4.07;;;;;;;20.77;61.23;102272.69;4992446;28;20041;-48
2021/08/28 09:24:09;;;;;;;10.25;3.78;;;;;;;20.27;60.85;102276.47;4993094;28;20029;-50
2021/08/28 09:26:39;;;;;;;11.27;4.00;;;;;;;20.58;60.42;102276.34;4989032;28;20121;-48
2021/08/28 09:29:05;;;;;;;11.27;4.22;;;;;;;20.53;60.83;102281.66;4988654;28;20030;-51
2021/08/28 09:31:45;;;;;;;8.77;4.40;;;;;;;20.59;59.83;102286.94;4992511;28;20474;-50
2021/08/28 09:34:17;;;;;;;8.70;4.00;;;;;;;20.85;59.39;102283.25;4988033;28;20034;-51
2021/08/28 09:36:43;;;;;;;11.85;4.20;;;;;;;20.40;60.53;102281.75;4990477;28;20060;-53
2021/08/28 09:39:10;;;;;;;7.50;4.30;;;;;;;20.51;59.91;102290.50;4986497;28;20041;-45
2021/08/28 09:41:36;;;;;;;8.88;4.45;;;;;;;20.14;60.82;102289.75;4987657;28;20504;-47
2021/08/28 09:44:08;;;;;;;10.45;4.25;;;;;;;19.95;61.47;102288.94;4989314;28;20113;-53
2021/08/28 09:46:34;;;;;;;10.85;4.45;;;;;;;19.97;61.94;102284.53;4989240;28;20076;-49
2021/08/28 09:49:01;;;;;;;10.10;4.53;;;;;;;20.23;61.07;102282.66;4987028;28;20034;-50
2021/08/28 09:51:39;;;;;;;9.38;4.40;;;;;;;20.67;60.13;102293.97;4987212;28;20018;-47
2021/08/28 09:54:10;;;;;;;12.27;4.32;;;;;;;20.73;59.94;102291.28;4993107;28;20534;-51
2021/08/28 09:56:41;;;;;;;11.27;4.45;;;;;;;20.51;60.38;102296.69;5006110;28;20021;-48
2021/08/28 09:59:22;;;;;;;8.43;4.35;;;;;;;20.19;60.02;102294.13;4982443;28;20034;-52
2021/08/28 10:01:49;;;;;;;8.60;4.25;;;;;;;19.88;60.29;102289.84;4985983;28;20197;-49
2021/08/28 10:04:14;;;;;;;8.27;4.40;;;;;;;20.04;59.38;102286.25;4987640;28;20477;-51
2021/08/28 10:06:47;;;;;;;8.27;4.10;;;;;;;20.48;59.02;102283.47;4984733;28;20068;-50
2021/08/28 10:09:13;;;;;;;12.77;4.13;;;;;;;20.55;58.42;102277.22;4987595;28;20219;-49
2021/08/28 10:11:40;;;;;;;9.57;4.35;;;;;;;20.17;58.47;102282.69;4991712;28;20381;-47
2021/08/28 10:14:06;;;;;;;7.93;4.20;;;;;;;20.63;60.43;102280.72;4993548;28;20541;-49
2021/08/28 10:16:31;;;;;;;11.18;4.57;;;;;;;20.95;58.37;102277.88;4992996;28;20030;-52
2021/08/28 10:18:57;;;;;;;10.30;3.95;;;;;;;21.35;55.92;102282.88;4989419;28;20038;-50
2021/08/28 10:21:22;;;;;;;7.35;3.80;;;;;;;21.28;57.01;102279.41;4987681;28;20029;-49
2021/08/28 10:23:52;;;;;;;8.80;4.10;;;;;;;20.99;57.90;102290.19;4979111;28;20025;-50
2021/08/28 10:26:18;;;;;;;11.30;4.72;;;;;;;20.49;60.45;102284.34;4988960;28;20057;-48
2021/08/28 10:28:44;;;;;;;10.98;4.43;;;;;;;20.81;60.58;102285.03;4987422;28;20116;-53
2021/08/28 10:31:10;;;;;;;12.82;4.00;;;;;;;21.11;59.25;102278.63;4985191;28;20232;-48
2021/08/28 10:33:36;;;;;;;9.27;3.90;;;;;;;21.12;58.55;102279.50;4993026;28;20037;-48
2021/08/28 10:36:02;;;;;;;8.48;3.90;;;;;;;21.21;59.24;102276.81;4991540;28;20100;-49
2021/08/28 10:38:28;;;;;;;11.57;4.50;;;;;;;21.13;57.94;102284.81;4988688;28;20040;-47
2021/08/28 10:40:55;;;;;;;10.45;3.92;;;;;;;20.88;58.98;102280.56;4980950;28;20042;-46
2021/08/28 10:43:21;;;;;;;7.47;4.00;;;;;;;20.80;59.44;102283.25;4986640;28;20109;-49
2021/08/28 10:45:47;;;;;;;8.57;4.35;;;;;;;20.17;59.72;102282.69;4988406;28;20061;-48
2021/08/28 10:48:14;;;;;;;10.57;4.20;;;;;;;20.42;59.71;102290.56;4989319;28;20100;-48
2021/08/28 10:50:41;;;;;;;11.30;4.30;;;;;;;20.56;60.14;102288.72;4988197;28;20030;-50
2021/08/28 10:53:08;;;;;;;9.93;4.25;;;;;;;20.91;58.41;102286.75;4990056;28;20038;-47
2021/08/28 10:55:39;;;;;;;9.13;3.90;;;;;;;21.25;56.95;102276.78;4992468;28;20033;-51
2021/08/28 10:58:19;;;;;;;8.52;4.38;;;;;;;21.20;56.13;102283.03;4989135;28;20033;-49
2021/08/28 11:00:49;;;;;;;11.68;3.83;;;;;;;21.19;56.38;102284.78;4980174;28;20049;-47
2021/08/28 11:03:22;;;;;;;6.85;3.60;;;;;;;21.48;56.02;102288.94;4988802;28;20036;-51
2021/08/28 11:06:13;;;;;;;6.97;3.50;;;;;;;21.13;55.31;102289.22;4990188;28;20060;-49
2021/08/28 11:08:49;;;;;;;8.27;3.72;;;;;;;21.17;54.61;102288.31;4985168;28;20428;-50
2021/08/28 11:11:23;;;;;;;8.63;3.45;;;;;;;21.12;56.13;102287.47;4984041;28;20057;-47
2021/08/28 11:14:00;;;;;;;9.95;3.58;;;;;;;20.78;55.92;102290.38;4987688;28;20108;-46
2021/08/28 11:16:41;;;;;;;6.25;3.40;;;;;;;20.78;55.55;102300.97;4990859;28;20037;-47
2021/08/28 11:19:31;;;;;;;8.43;3.45;;;;;;;20.77;55.02;102287.72;4997497;28;20149;-50